sensor_id;sensor_type;location;lat;lon;timestamp;pressure;altitude;pressure_sealevel;temperature;humidity
4858;BME280;58975;51.978;8.472;2023-06-19T00:04:06;99813.09;;;22.39;58.71
4858;BME280;58975;51.978;8.472;2023-06-19T00:09:03;99811.28;;;22.26;59.53
4858;BME280;58975;51.978;8.472;2023-06-19T00:13:59;99808.38;;;22.14;60.98
4858;BME280;58975;51.978;8.472;2023-06-19T00:18:57;99800.66;;;22.18;59.83
4858;BME280;58975;51.978;8.472;2023-06-19T00:23:54;99792.13;;;22.14;60.85
4858;BME280;58975;51.978;8.472;2023-06-19T00:28:53;99788.38;;;21.83;63.21
4858;BME280;58975;51.978;8.472;2023-06-19T00:33:50;99772.16;;;21.63;64.89
4858;BME280;58975;51.978;8.472;2023-06-19T00:38:47;99773.38;;;21.60;64.89
4858;BME280;58975;51.978;8.472;2023-06-19T00:43:44;99757.78;;;21.56;67.81
4858;BME280;58975;51.978;8.472;2023-06-19T00:48:40;99741.50;;;21.49;68.23
4858;BME280;58975;51.978;8.472;2023-06-19T00:53:37;99731.72;;;21.42;73.29
4858;BME280;58975;51.978;8.472;2023-06-19T00:58:34;99726.53;;;21.27;73.95
4858;BME280;58975;51.978;8.472;2023-06-19T01:03:31;99718.81;;;21.24;75.77
4858;BME280;58975;51.978;8.472;2023-06-19T01:09:01;99711.50;;;21.18;77.70
4858;BME280;58975;51.978;8.472;2023-06-19T01:14:01;99705.47;;;21.22;72.49
4858;BME280;58975;51.978;8.472;2023-06-19T01:18:59;99731.28;;;21.58;68.76
4858;BME280;58975;51.978;8.472;2023-06-19T01:23:56;99732.13;;;21.58;68.57
4858;BME280;58975;51.978;8.472;2023-06-19T01:28:53;99736.94;;;21.50;69.86
4858;BME280;58975;51.978;8.472;2023-06-19T01:33:52;99740.28;;;21.52;69.31
4858;BME280;58975;51.978;8.472;2023-06-19T01:38:50;99731.91;;;21.66;68.02
4858;BME280;58975;51.978;8.472;2023-06-19T01:43:47;99739.59;;;21.76;67.74
4858;BME280;58975;51.978;8.472;2023-06-19T01:48:44;99740.88;;;21.60;70.16
4858;BME280;58975;51.978;8.472;2023-06-19T01:53:41;99737.97;;;21.55;72.52
4858;BME280;58975;51.978;8.472;2023-06-19T01:58:37;99734.22;;;21.50;75.36
4858;BME280;58975;51.978;8.472;2023-06-19T02:03:34;99730.88;;;21.41;78.84
4858;BME280;58975;51.978;8.472;2023-06-19T02:08:30;99739.84;;;21.15;85.16
4858;BME280;58975;51.978;8.472;2023-06-19T02:13:27;99725.00;;;20.98;94.06
4858;BME280;58975;51.978;8.472;2023-06-19T02:18:24;99731.00;;;20.74;100.00
4858;BME280;58975;51.978;8.472;2023-06-19T02:23:21;99727.66;;;20.59;100.00
4858;BME280;58975;51.978;8.472;2023-06-19T02:28:17;99723.06;;;20.53;100.00
4858;BME280;58975;51.978;8.472;2023-06-19T02:33:14;99723.19;;;20.32;100.00
4858;BME280;58975;51.978;8.472;2023-06-19T02:38:10;99726.53;;;20.34;100.00
4858;BME280;58975;51.978;8.472;2023-06-19T02:43:08;99721.56;;;20.44;100.00
4858;BME280;58975;51.978;8.472;2023-06-19T02:48:05;99718.25;;;20.42;100.00
4858;BME280;58975;51.978;8.472;2023-06-19T02:53:01;99711.16;;;20.34;100.00
4858;BME280;58975;51.978;8.472;2023-06-19T02:57:58;99712.69;;;20.15;100.00
4858;BME280;58975;51.978;8.472;2023-06-19T03:02:54;99717.41;;;20.00;100.00
4858;BME280;58975;51.978;8.472;2023-06-19T03:07:51;99715.09;;;19.97;100.00
4858;BME280;58975;51.978;8.472;2023-06-19T03:12:48;99715.56;;;20.07;100.00
4858;BME280;58975;51.978;8.472;2023-06-19T03:17:44;99716.63;;;20.06;100.00
4858;BME280;58975;51.978;8.472;2023-06-19T03:22:41;99719.69;;;19.97;100.00
4858;BME280;58975;51.978;8.472;2023-06-19T03:27:38;99728.53;;;19.84;100.00
4858;BME280;58975;51.978;8.472;2023-06-19T03:32:34;99729.41;;;19.57;100.00
4858;BME280;58975;51.978;8.472;2023-06-19T03:37:31;99738.31;;;19.51;100.00
4858;BME280;58975;51.978;8.472;2023-06-19T03:42:29;99740.66;;;19.60;100.00
4858;BME280;58975;51.978;8.472;2023-06-19T03:47:25;99742.81;;;19.71;100.00
4858;BME280;58975;51.978;8.472;2023-06-19T03:52:22;99753.19;;;19.68;100.00
4858;BME280;58975;51.978;8.472;2023-06-19T03:57:18;99745.88;;;19.62;100.00
4858;BME280;58975;51.978;8.472;2023-06-19T04:02:14;99748.66;;;19.75;100.00
4858;BME280;58975;51.978;8.472;2023-06-19T04:07:11;99753.31;;;19.88;100.00
4858;BME280;58975;51.978;8.472;2023-06-19T04:12:08;99751.97;;;20.11;100.00
4858;BME280;58975;51.978;8.472;2023-06-19T04:17:05;99755.56;;;20.18;100.00
4858;BME280;58975;51.978;8.472;2023-06-19T04:22:01;99766.31;;;20.46;100.00
4858;BME280;58975;51.978;8.472;2023-06-19T04:26:58;99771.81;;;20.72;100.00
4858;BME280;58975;51.978;8.472;2023-06-19T04:31:54;99773.28;;;20.75;100.00
4858;BME280;58975;51.978;8.472;2023-06-19T04:36:51;99774.09;;;20.75;100.00
4858;BME280;58975;51.978;8.472;2023-06-19T04:41:48;99778.72;;;20.88;100.00
4858;BME280;58975;51.978;8.472;2023-06-19T04:46:44;99778.75;;;21.01;100.00
4858;BME280;58975;51.978;8.472;2023-06-19T04:51:41;99783.75;;;21.04;100.00
4858;BME280;58975;51.978;8.472;2023-06-19T04:56:38;99791.91;;;21.17;100.00
4858;BME280;58975;51.978;8.472;2023-06-19T05:01:35;99800.25;;;21.22;100.00
4858;BME280;58975;51.978;8.472;2023-06-19T05:06:32;99804.44;;;21.32;100.00
4858;BME280;58975;51.978;8.472;2023-06-19T05:11:28;99807.16;;;21.38;100.00
4858;BME280;58975;51.978;8.472;2023-06-19T05:16:26;99823.41;;;21.45;100.00
4858;BME280;58975;51.978;8.472;2023-06-19T05:21:23;99834.47;;;21.50;100.00
4858;BME280;58975;51.978;8.472;2023-06-19T05:26:19;99840.06;;;21.68;100.00
4858;BME280;58975;51.978;8.472;2023-06-19T05:31:16;99841.13;;;21.80;100.00
4858;BME280;58975;51.978;8.472;2023-06-19T05:36:14;99853.44;;;21.96;100.00
4858;BME280;58975;51.978;8.472;2023-06-19T05:41:13;99847.19;;;22.02;100.00
4858;BME280;58975;51.978;8.472;2023-06-19T05:46:09;99858.03;;;22.08;100.00
4858;BME280;58975;51.978;8.472;2023-06-19T05:51:07;99859.28;;;22.12;100.00
4858;BME280;58975;51.978;8.472;2023-06-19T05:56:03;99860.91;;;22.33;100.00
4858;BME280;58975;51.978;8.472;2023-06-19T06:01:00;99863.00;;;22.38;100.00
4858;BME280;58975;51.978;8.472;2023-06-19T06:05:57;99881.78;;;22.26;100.00
4858;BME280;58975;51.978;8.472;2023-06-19T06:10:59;99882.38;;;22.35;100.00
4858;BME280;58975;51.978;8.472;2023-06-19T06:15:55;99894.69;;;22.44;100.00
4858;BME280;58975;51.978;8.472;2023-06-19T06:20:52;99895.94;;;22.35;100.00
4858;BME280;58975;51.978;8.472;2023-06-19T06:25:49;99890.13;;;22.38;100.00
4858;BME280;58975;51.978;8.472;2023-06-19T06:30:45;99903.25;;;22.41;100.00
4858;BME280;58975;51.978;8.472;2023-06-19T06:35:42;99900.50;;;22.47;100.00
4858;BME280;58975;51.978;8.472;2023-06-19T06:40:38;99903.19;;;22.67;100.00
4858;BME280;58975;51.978;8.472;2023-06-19T06:45:35;99914.25;;;22.59;100.00
4858;BME280;58975;51.978;8.472;2023-06-19T06:50:34;99923.88;;;22.61;100.00
4858;BME280;58975;51.978;8.472;2023-06-19T06:55:30;99926.78;;;22.60;100.00
4858;BME280;58975;51.978;8.472;2023-06-19T07:00:27;99931.34;;;22.66;100.00
4858;BME280;58975;51.978;8.472;2023-06-19T07:05:24;99938.06;;;22.70;100.00
4858;BME280;58975;51.978;8.472;2023-06-19T07:10:20;99931.78;;;22.63;100.00
4858;BME280;58975;51.978;8.472;2023-06-19T07:15:17;99919.34;;;22.42;100.00
4858;BME280;58975;51.978;8.472;2023-06-19T07:20:14;99939.78;;;22.25;100.00
4858;BME280;58975;51.978;8.472;2023-06-19T07:25:11;99942.09;;;22.08;100.00
4858;BME280;58975;51.978;8.472;2023-06-19T07:30:08;99933.06;;;22.47;100.00
4858;BME280;58975;51.978;8.472;2023-06-19T07:35:05;99949.94;;;22.82;100.00
4858;BME280;58975;51.978;8.472;2023-06-19T07:40:04;99954.66;;;23.06;100.00
4858;BME280;58975;51.978;8.472;2023-06-19T07:45:00;99953.56;;;22.37;100.00
4858;BME280;58975;51.978;8.472;2023-06-19T07:49:57;99954.81;;;22.14;100.00
4858;BME280;58975;51.978;8.472;2023-06-19T07:54:56;99951.44;;;21.86;100.00
4858;BME280;58975;51.978;8.472;2023-06-19T07:59:53;99952.94;;;22.41;100.00
4858;BME280;58975;51.978;8.472;2023-06-19T08:04:51;99957.69;;;22.72;100.00
4858;BME280;58975;51.978;8.472;2023-06-19T08:09:47;99966.66;;;22.59;100.00
4858;BME280;58975;51.978;8.472;2023-06-19T08:14:59;99964.19;;;22.32;100.00
4858;BME280;58975;51.978;8.472;2023-06-19T08:19:56;99975.25;;;22.37;100.00
4858;BME280;58975;51.978;8.472;2023-06-19T08:24:52;99979.03;;;22.29;100.00
4858;BME280;58975;51.978;8.472;2023-06-19T08:29:49;99979.44;;;22.46;100.00
4858;BME280;58975;51.978;8.472;2023-06-19T08:34:45;99985.53;;;23.19;100.00
4858;BME280;58975;51.978;8.472;2023-06-19T08:39:42;99987.34;;;22.80;100.00
4858;BME280;58975;51.978;8.472;2023-06-19T08:44:38;99995.50;;;22.41;100.00
4858;BME280;58975;51.978;8.472;2023-06-19T08:49:35;99997.38;;;22.27;100.00
4858;BME280;58975;51.978;8.472;2023-06-19T08:54:32;100003.94;;;23.10;100.00
4858;BME280;58975;51.978;8.472;2023-06-19T08:59:30;100009.47;;;22.77;100.00
4858;BME280;58975;51.978;8.472;2023-06-19T09:04:28;100022.84;;;22.52;100.00
4858;BME280;58975;51.978;8.472;2023-06-19T09:09:26;100027.00;;;22.55;100.00
4858;BME280;58975;51.978;8.472;2023-06-19T09:14:39;100037.00;;;23.00;100.00
4858;BME280;58975;51.978;8.472;2023-06-19T09:19:35;100036.63;;;22.71;100.00
4858;BME280;58975;51.978;8.472;2023-06-19T09:24:39;100023.09;;;23.35;100.00
4858;BME280;58975;51.978;8.472;2023-06-19T09:29:37;100037.22;;;23.63;100.00
4858;BME280;58975;51.978;8.472;2023-06-19T09:34:37;100035.31;;;24.01;100.00
4858;BME280;58975;51.978;8.472;2023-06-19T09:39:34;100032.00;;;22.91;100.00
4858;BME280;58975;51.978;8.472;2023-06-19T09:44:40;100043.91;;;22.44;100.00
4858;BME280;58975;51.978;8.472;2023-06-19T09:49:42;100042.03;;;22.97;100.00
4858;BME280;58975;51.978;8.472;2023-06-19T09:54:42;100037.84;;;22.88;100.00
4858;BME280;58975;51.978;8.472;2023-06-19T09:59:40;100054.56;;;22.78;100.00
4858;BME280;58975;51.978;8.472;2023-06-19T10:04:54;100057.66;;;23.01;100.00
4858;BME280;58975;51.978;8.472;2023-06-19T10:09:59;100053.75;;;22.71;100.00
4858;BME280;58975;51.978;8.472;2023-06-19T10:14:56;100063.34;;;22.80;100.00
4858;BME280;58975;51.978;8.472;2023-06-19T10:19:52;100051.25;;;22.50;100.00
4858;BME280;58975;51.978;8.472;2023-06-19T10:24:50;100060.63;;;22.41;100.00
4858;BME280;58975;51.978;8.472;2023-06-19T10:29:52;100057.47;;;22.90;100.00
4858;BME280;58975;51.978;8.472;2023-06-19T10:35:13;100065.63;;;22.70;100.00
4858;BME280;58975;51.978;8.472;2023-06-19T10:40:10;100066.06;;;22.80;100.00
4858;BME280;58975;51.978;8.472;2023-06-19T10:45:11;100071.72;;;22.85;100.00
4858;BME280;58975;51.978;8.472;2023-06-19T10:50:17;100062.91;;;22.96;100.00
4858;BME280;58975;51.978;8.472;2023-06-19T10:55:15;100061.81;;;23.24;100.00
4858;BME280;58975;51.978;8.472;2023-06-19T11:00:25;100058.09;;;23.76;100.00
4858;BME280;58975;51.978;8.472;2023-06-19T11:05:23;100061.44;;;23.71;100.00
4858;BME280;58975;51.978;8.472;2023-06-19T11:10:22;100063.13;;;24.41;100.00
4858;BME280;58975;51.978;8.472;2023-06-19T11:15:19;100072.81;;;23.42;100.00
4858;BME280;58975;51.978;8.472;2023-06-19T11:20:16;100070.09;;;23.42;100.00
4858;BME280;58975;51.978;8.472;2023-06-19T11:25:12;100070.00;;;23.68;100.00
4858;BME280;58975;51.978;8.472;2023-06-19T11:30:09;100068.25;;;23.36;100.00
4858;BME280;58975;51.978;8.472;2023-06-19T11:35:08;100067.00;;;23.32;100.00
4858;BME280;58975;51.978;8.472;2023-06-19T11:40:05;100076.63;;;23.28;100.00
4858;BME280;58975;51.978;8.472;2023-06-19T11:45:09;100079.19;;;24.12;100.00
4858;BME280;58975;51.978;8.472;2023-06-19T11:50:06;100082.66;;;23.94;100.00
4858;BME280;58975;51.978;8.472;2023-06-19T11:55:04;100071.00;;;23.80;100.00
4858;BME280;58975;51.978;8.472;2023-06-19T12:00:01;100076.13;;;24.01;100.00
4858;BME280;58975;51.978;8.472;2023-06-19T12:05:00;100072.75;;;24.69;100.00
4858;BME280;58975;51.978;8.472;2023-06-19T12:09:56;100061.47;;;24.90;100.00
4858;BME280;58975;51.978;8.472;2023-06-19T12:14:53;100054.31;;;24.46;100.00
4858;BME280;58975;51.978;8.472;2023-06-19T12:19:49;100055.31;;;24.20;100.00
4858;BME280;58975;51.978;8.472;2023-06-19T12:24:46;100057.13;;;23.95;100.00
4858;BME280;58975;51.978;8.472;2023-06-19T12:29:43;100059.91;;;24.20;100.00
4858;BME280;58975;51.978;8.472;2023-06-19T12:34:39;100040.72;;;24.64;99.75
4858;BME280;58975;51.978;8.472;2023-06-19T12:39:36;100056.75;;;24.54;100.00
4858;BME280;58975;51.978;8.472;2023-06-19T12:44:33;100041.59;;;25.44;99.17
4858;BME280;58975;51.978;8.472;2023-06-19T12:49:29;100051.94;;;24.74;98.42
4858;BME280;58975;51.978;8.472;2023-06-19T12:54:26;100048.00;;;24.95;94.17
4858;BME280;58975;51.978;8.472;2023-06-19T12:59:23;100051.53;;;25.20;96.79
4858;BME280;58975;51.978;8.472;2023-06-19T13:04:20;100041.59;;;25.62;92.68
4858;BME280;58975;51.978;8.472;2023-06-19T13:09:16;100053.44;;;26.57;81.87
4858;BME280;58975;51.978;8.472;2023-06-19T13:14:13;100048.41;;;25.71;77.85
4858;BME280;58975;51.978;8.472;2023-06-19T13:19:09;100049.94;;;25.13;76.81
4858;BME280;58975;51.978;8.472;2023-06-19T13:24:06;100046.56;;;25.11;81.05
4858;BME280;58975;51.978;8.472;2023-06-19T13:29:03;100044.91;;;25.10;76.85
4858;BME280;58975;51.978;8.472;2023-06-19T13:33:59;100043.59;;;25.85;85.32
4858;BME280;58975;51.978;8.472;2023-06-19T13:38:56;100041.53;;;26.63;66.22
4858;BME280;58975;51.978;8.472;2023-06-19T13:43:52;100042.81;;;25.48;70.17
4858;BME280;58975;51.978;8.472;2023-06-19T13:48:50;100043.31;;;26.34;71.66
4858;BME280;58975;51.978;8.472;2023-06-19T13:53:49;100033.69;;;26.44;69.12
4858;BME280;58975;51.978;8.472;2023-06-19T13:58:46;100041.84;;;25.91;67.47
4858;BME280;58975;51.978;8.472;2023-06-19T14:03:43;100043.44;;;26.10;69.57
4858;BME280;58975;51.978;8.472;2023-06-19T14:08:39;100044.41;;;27.15;68.98
4858;BME280;58975;51.978;8.472;2023-06-19T14:13:36;100036.22;;;26.57;63.60
4858;BME280;58975;51.978;8.472;2023-06-19T14:18:33;100044.69;;;25.96;65.67
4858;BME280;58975;51.978;8.472;2023-06-19T14:23:30;100045.34;;;26.09;68.59
4858;BME280;58975;51.978;8.472;2023-06-19T14:28:27;100039.78;;;26.16;66.48
4858;BME280;58975;51.978;8.472;2023-06-19T14:33:23;100036.75;;;26.35;67.09
4858;BME280;58975;51.978;8.472;2023-06-19T14:38:20;100034.06;;;26.47;67.21
4858;BME280;58975;51.978;8.472;2023-06-19T14:43:16;100029.44;;;27.06;65.82
4858;BME280;58975;51.978;8.472;2023-06-19T14:48:13;100025.09;;;28.13;66.79
4858;BME280;58975;51.978;8.472;2023-06-19T14:53:10;100022.13;;;28.14;59.20
4858;BME280;58975;51.978;8.472;2023-06-19T14:58:07;100034.34;;;25.86;65.36
4858;BME280;58975;51.978;8.472;2023-06-19T15:03:06;100033.72;;;27.02;62.37
4858;BME280;58975;51.978;8.472;2023-06-19T15:08:03;100041.44;;;27.28;62.12
4858;BME280;58975;51.978;8.472;2023-06-19T15:13:01;100043.91;;;27.29;63.71
4858;BME280;58975;51.978;8.472;2023-06-19T15:17:58;100038.72;;;26.81;63.41
4858;BME280;58975;51.978;8.472;2023-06-19T15:22:54;100034.69;;;27.99;61.27
4858;BME280;58975;51.978;8.472;2023-06-19T15:27:51;100031.38;;;27.57;60.62
4858;BME280;58975;51.978;8.472;2023-06-19T15:32:47;100023.72;;;27.19;59.22
4858;BME280;58975;51.978;8.472;2023-06-19T15:37:44;100027.06;;;26.63;60.58
4858;BME280;58975;51.978;8.472;2023-06-19T15:42:40;100024.41;;;26.33;62.13
4858;BME280;58975;51.978;8.472;2023-06-19T15:47:37;100014.44;;;26.39;62.04
4858;BME280;58975;51.978;8.472;2023-06-19T15:52:33;100017.03;;;27.38;61.04
4858;BME280;58975;51.978;8.472;2023-06-19T15:57:30;100011.41;;;27.85;56.56
4858;BME280;58975;51.978;8.472;2023-06-19T16:02:27;100013.03;;;26.82;61.18
4858;BME280;58975;51.978;8.472;2023-06-19T16:07:24;100015.44;;;26.67;59.54
4858;BME280;58975;51.978;8.472;2023-06-19T16:12:20;100003.16;;;27.28;57.98
4858;BME280;58975;51.978;8.472;2023-06-19T16:17:17;99997.50;;;26.95;57.76
4858;BME280;58975;51.978;8.472;2023-06-19T16:22:13;99993.59;;;26.91;58.53
4858;BME280;58975;51.978;8.472;2023-06-19T16:27:10;99992.84;;;27.07;59.05
4858;BME280;58975;51.978;8.472;2023-06-19T16:32:07;99983.47;;;27.54;55.95
4858;BME280;58975;51.978;8.472;2023-06-19T16:37:06;99985.72;;;27.86;55.87
4858;BME280;58975;51.978;8.472;2023-06-19T16:42:03;99978.00;;;28.11;53.81
4858;BME280;58975;51.978;8.472;2023-06-19T16:46:59;99978.28;;;29.41;52.85
4858;BME280;58975;51.978;8.472;2023-06-19T16:51:56;99990.50;;;28.40;50.92
4858;BME280;58975;51.978;8.472;2023-06-19T16:56:52;99984.09;;;28.68;50.63
4858;BME280;58975;51.978;8.472;2023-06-19T17:01:49;99981.69;;;29.10;49.74
4858;BME280;58975;51.978;8.472;2023-06-19T17:06:46;99990.44;;;28.35;51.10
4858;BME280;58975;51.978;8.472;2023-06-19T17:11:42;99995.69;;;29.08;51.02
4858;BME280;58975;51.978;8.472;2023-06-19T17:16:40;99996.31;;;29.16;49.57
4858;BME280;58975;51.978;8.472;2023-06-19T17:21:38;99984.13;;;33.23;40.76
4858;BME280;58975;51.978;8.472;2023-06-19T17:26:35;99998.72;;;31.72;43.05
4858;BME280;58975;51.978;8.472;2023-06-19T17:31:31;100003.72;;;31.85;42.74
4858;BME280;58975;51.978;8.472;2023-06-19T17:36:28;99990.50;;;33.08;40.70
4858;BME280;58975;51.978;8.472;2023-06-19T17:41:24;99988.34;;;34.08;38.75
4858;BME280;58975;51.978;8.472;2023-06-19T17:46:21;99992.75;;;33.60;37.84
4858;BME280;58975;51.978;8.472;2023-06-19T17:51:18;99993.31;;;32.43;40.41
4858;BME280;58975;51.978;8.472;2023-06-19T17:56:16;99997.34;;;31.02;41.54
4858;BME280;58975;51.978;8.472;2023-06-19T18:01:13;100002.69;;;30.13;43.46
4858;BME280;58975;51.978;8.472;2023-06-19T18:06:10;100007.69;;;29.68;44.15
4858;BME280;58975;51.978;8.472;2023-06-19T18:11:06;100012.78;;;31.13;42.97
4858;BME280;58975;51.978;8.472;2023-06-19T18:16:03;100013.88;;;30.70;43.33
4858;BME280;58975;51.978;8.472;2023-06-19T18:21:08;100024.56;;;30.67;43.47
4858;BME280;58975;51.978;8.472;2023-06-19T18:26:04;100023.59;;;30.46;42.97
4858;BME280;58975;51.978;8.472;2023-06-19T18:31:01;100020.38;;;30.27;44.67
4858;BME280;58975;51.978;8.472;2023-06-19T18:35:57;100024.41;;;30.20;44.50
4858;BME280;58975;51.978;8.472;2023-06-19T18:40:54;100021.97;;;29.70;45.20
4858;BME280;58975;51.978;8.472;2023-06-19T18:45:50;100025.88;;;29.30;46.53
4858;BME280;58975;51.978;8.472;2023-06-19T18:50:47;100031.50;;;29.40;48.28
4858;BME280;58975;51.978;8.472;2023-06-19T18:55:44;100030.16;;;29.43;47.07
4858;BME280;58975;51.978;8.472;2023-06-19T19:00:40;100027.34;;;30.08;48.07
4858;BME280;58975;51.978;8.472;2023-06-19T19:05:37;100027.53;;;30.28;48.30
4858;BME280;58975;51.978;8.472;2023-06-19T19:10:35;100031.09;;;29.53;50.18
4858;BME280;58975;51.978;8.472;2023-06-19T19:15:31;100034.44;;;28.62;51.53
4858;BME280;58975;51.978;8.472;2023-06-19T19:20:28;100030.00;;;27.31;55.55
4858;BME280;58975;51.978;8.472;2023-06-19T19:25:25;100036.06;;;26.40;56.35
4858;BME280;58975;51.978;8.472;2023-06-19T19:30:21;100044.31;;;25.44;60.98
4858;BME280;58975;51.978;8.472;2023-06-19T19:35:18;100052.94;;;24.55;68.72
4858;BME280;58975;51.978;8.472;2023-06-19T19:40:15;100060.94;;;23.87;81.58
4858;BME280;58975;51.978;8.472;2023-06-19T19:45:11;100062.88;;;23.09;98.55
4858;BME280;58975;51.978;8.472;2023-06-19T19:50:08;100065.03;;;22.68;100.00
4858;BME280;58975;51.978;8.472;2023-06-19T19:55:07;100073.75;;;22.50;100.00
4858;BME280;58975;51.978;8.472;2023-06-19T20:00:05;100080.38;;;22.02;100.00
4858;BME280;58975;51.978;8.472;2023-06-19T20:05:02;100081.91;;;21.70;100.00
4858;BME280;58975;51.978;8.472;2023-06-19T20:09:58;100086.22;;;21.51;100.00
4858;BME280;58975;51.978;8.472;2023-06-19T20:14:54;100088.69;;;21.46;100.00
4858;BME280;58975;51.978;8.472;2023-06-19T20:19:52;100081.22;;;21.14;100.00
4858;BME280;58975;51.978;8.472;2023-06-19T20:24:48;100083.88;;;21.07;100.00
4858;BME280;58975;51.978;8.472;2023-06-19T20:29:45;100082.41;;;21.05;100.00
4858;BME280;58975;51.978;8.472;2023-06-19T20:34:41;100087.69;;;20.85;100.00
4858;BME280;58975;51.978;8.472;2023-06-19T20:39:38;100087.13;;;20.68;100.00
4858;BME280;58975;51.978;8.472;2023-06-19T20:44:37;100088.25;;;20.53;100.00
4858;BME280;58975;51.978;8.472;2023-06-19T20:49:34;100082.69;;;20.18;100.00
4858;BME280;58975;51.978;8.472;2023-06-19T20:54:30;100084.97;;;20.00;100.00
4858;BME280;58975;51.978;8.472;2023-06-19T20:59:27;100098.31;;;20.02;100.00
4858;BME280;58975;51.978;8.472;2023-06-19T21:04:23;100091.50;;;20.06;100.00
4858;BME280;58975;51.978;8.472;2023-06-19T21:09:21;100090.97;;;19.96;100.00
4858;BME280;58975;51.978;8.472;2023-06-19T21:14:18;100088.97;;;19.83;100.00
4858;BME280;58975;51.978;8.472;2023-06-19T21:19:14;100086.94;;;19.70;100.00
4858;BME280;58975;51.978;8.472;2023-06-19T21:24:11;100097.13;;;19.54;100.00
4858;BME280;58975;51.978;8.472;2023-06-19T21:29:08;100100.66;;;19.54;100.00
4858;BME280;58975;51.978;8.472;2023-06-19T21:34:04;100087.78;;;19.42;100.00
4858;BME280;58975;51.978;8.472;2023-06-19T21:39:01;100102.22;;;19.34;100.00
4858;BME280;58975;51.978;8.472;2023-06-19T21:43:57;100102.44;;;19.32;100.00
4858;BME280;58975;51.978;8.472;2023-06-19T21:48:54;100102.16;;;19.13;100.00
4858;BME280;58975;51.978;8.472;2023-06-19T21:53:51;100095.63;;;19.07;100.00
4858;BME280;58975;51.978;8.472;2023-06-19T21:58:47;100089.00;;;19.10;100.00
4858;BME280;58975;51.978;8.472;2023-06-19T22:03:44;100082.59;;;19.11;100.00
4858;BME280;58975;51.978;8.472;2023-06-19T22:08:41;100070.19;;;19.02;100.00
4858;BME280;58975;51.978;8.472;2023-06-19T22:13:38;100078.66;;;18.99;100.00
4858;BME280;58975;51.978;8.472;2023-06-19T22:18:36;100075.13;;;18.83;100.00
4858;BME280;58975;51.978;8.472;2023-06-19T22:23:32;100068.50;;;18.86;100.00
4858;BME280;58975;51.978;8.472;2023-06-19T22:28:29;100066.41;;;18.96;100.00
4858;BME280;58975;51.978;8.472;2023-06-19T22:33:25;100061.06;;;19.17;100.00
4858;BME280;58975;51.978;8.472;2023-06-19T22:38:22;100063.03;;;19.23;100.00
4858;BME280;58975;51.978;8.472;2023-06-19T22:43:18;100059.03;;;19.19;100.00
4858;BME280;58975;51.978;8.472;2023-06-19T22:48:15;100052.63;;;19.20;100.00
4858;BME280;58975;51.978;8.472;2023-06-19T22:53:14;100060.53;;;19.22;100.00
4858;BME280;58975;51.978;8.472;2023-06-19T22:58:11;100061.75;;;19.19;100.00
4858;BME280;58975;51.978;8.472;2023-06-19T23:03:08;100052.16;;;19.17;100.00
4858;BME280;58975;51.978;8.472;2023-06-19T23:08:04;100058.66;;;19.22;100.00
4858;BME280;58975;51.978;8.472;2023-06-19T23:13:01;100056.16;;;19.21;100.00
4858;BME280;58975;51.978;8.472;2023-06-19T23:17:57;100057.09;;;19.43;100.00
4858;BME280;58975;51.978;8.472;2023-06-19T23:22:54;100049.72;;;19.51;100.00
4858;BME280;58975;51.978;8.472;2023-06-19T23:27:50;100054.94;;;19.53;100.00
4858;BME280;58975;51.978;8.472;2023-06-19T23:32:47;100053.78;;;19.62;100.00
4858;BME280;58975;51.978;8.472;2023-06-19T23:37:43;100049.13;;;19.70;100.00
4858;BME280;58975;51.978;8.472;2023-06-19T23:42:40;100062.81;;;19.69;100.00
4858;BME280;58975;51.978;8.472;2023-06-19T23:47:36;100062.34;;;19.65;100.00
4858;BME280;58975;51.978;8.472;2023-06-19T23:52:33;100062.56;;;19.64;100.00
4858;BME280;58975;51.978;8.472;2023-06-19T23:57:39;100059.47;;;19.67;100.00
